createdAt,value
2018-03-21T00:02:06.428Z,14.90
2018-03-21T00:04:34.683Z,13.10
2018-03-21T00:07:02.997Z,12.30
2018-03-21T00:09:31.379Z,11.52
2018-03-21T00:11:59.596Z,10.35
2018-03-21T00:14:27.870Z,9.63
2018-03-21T00:16:56.227Z,10.50
2018-03-21T00:19:24.637Z,9.30
2018-03-21T00:21:52.956Z,7.93
2018-03-21T00:24:21.185Z,8.23
2018-03-21T00:26:49.448Z,7.70
2018-03-21T00:29:17.757Z,7.65
2018-03-21T00:31:45.844Z,7.95
2018-03-21T00:34:14.039Z,7.35
2018-03-21T00:36:42.228Z,7.35
2018-03-21T00:39:10.525Z,8.07
2018-03-21T00:41:38.617Z,7.90
2018-03-21T00:44:06.817Z,8.35
2018-03-21T00:46:35.265Z,8.50
2018-03-21T00:49:03.614Z,8.82
2018-03-21T00:51:32.008Z,8.98
2018-03-21T00:54:00.296Z,8.27
2018-03-21T00:56:28.615Z,8.65
2018-03-21T00:58:56.810Z,8.52
2018-03-21T01:01:25.000Z,7.62
2018-03-21T01:03:53.295Z,7.70
2018-03-21T01:06:21.385Z,8.50
2018-03-21T01:08:49.540Z,8.68
2018-03-21T01:11:17.680Z,8.52
2018-03-21T01:13:46.037Z,8.07
2018-03-21T01:16:14.320Z,8.00
2018-03-21T01:18:42.579Z,7.95
2018-03-21T01:21:10.861Z,8.30
2018-03-21T01:23:39.056Z,7.28
2018-03-21T01:26:07.069Z,7.50
2018-03-21T01:28:36.024Z,8.80
2018-03-21T01:31:04.261Z,7.93
2018-03-21T01:33:32.616Z,8.43
2018-03-21T01:36:01.068Z,7.57
2018-03-21T01:38:29.456Z,7.95
2018-03-21T01:40:57.748Z,8.25
2018-03-21T01:43:26.072Z,8.23
2018-03-21T01:45:54.316Z,8.95
2018-03-21T01:48:22.832Z,8.30
2018-03-21T01:50:50.977Z,8.65
2018-03-21T01:53:19.233Z,9.05
2018-03-21T01:55:47.365Z,8.10
2018-03-21T01:58:15.515Z,7.47
2018-03-21T02:00:43.619Z,7.70
2018-03-21T02:03:11.724Z,7.40
2018-03-21T02:05:39.876Z,8.80
2018-03-21T02:08:08.191Z,7.35
2018-03-21T02:10:36.594Z,6.53
2018-03-21T02:13:04.763Z,7.95
2018-03-21T02:15:34.309Z,8.00
2018-03-21T02:18:02.484Z,9.18
2018-03-21T02:20:30.907Z,8.55
2018-03-21T02:22:59.642Z,7.07
2018-03-21T02:25:28.511Z,8.20
2018-03-21T02:27:57.600Z,7.35
2018-03-21T02:30:26.778Z,7.87
2018-03-21T02:32:55.020Z,9.38
2018-03-21T02:35:23.328Z,7.12
2018-03-21T02:37:51.543Z,8.27
2018-03-21T02:40:20.241Z,8.38
2018-03-21T02:42:48.831Z,7.93
2018-03-21T02:45:17.418Z,7.72
2018-03-21T02:47:45.628Z,7.90
2018-03-21T02:50:13.919Z,8.00
2018-03-21T02:52:42.053Z,8.73
2018-03-21T02:55:11.570Z,8.23
2018-03-21T02:57:39.778Z,8.80
2018-03-21T03:00:08.343Z,9.23
2018-03-21T03:02:36.560Z,8.73
2018-03-21T03:05:04.956Z,7.75
2018-03-21T03:07:33.229Z,9.75
2018-03-21T03:10:01.818Z,8.77
2018-03-21T03:12:30.768Z,9.07
2018-03-21T03:14:59.341Z,8.80
2018-03-21T03:17:27.720Z,8.30
2018-03-21T03:19:56.494Z,9.45
2018-03-21T03:22:25.031Z,8.50
2018-03-21T03:24:53.458Z,9.57
2018-03-21T03:27:21.950Z,10.60
2018-03-21T03:29:52.649Z,10.93
2018-03-21T03:32:21.349Z,10.60
2018-03-21T03:34:49.914Z,7.72
2018-03-21T03:37:18.819Z,10.00
2018-03-21T03:39:47.967Z,9.52
2018-03-21T03:42:16.130Z,8.98
2018-03-21T03:44:47.808Z,9.55
2018-03-21T03:47:16.923Z,9.55
2018-03-21T03:49:46.062Z,8.85
2018-03-21T03:52:14.628Z,9.27
2018-03-21T03:54:43.147Z,9.30
2018-03-21T03:57:11.635Z,8.18
2018-03-21T03:59:40.132Z,9.02
2018-03-21T04:02:08.861Z,9.77
2018-03-21T04:04:37.494Z,9.40
2018-03-21T04:07:05.948Z,8.48
2018-03-21T04:09:34.478Z,9.80
2018-03-21T04:12:02.713Z,9.13
2018-03-21T04:14:31.141Z,8.48
2018-03-21T04:16:59.794Z,8.98
2018-03-21T04:19:28.162Z,9.23
2018-03-21T04:21:56.555Z,9.30
2018-03-21T04:24:26.789Z,9.02
2018-03-21T04:26:55.337Z,11.02
2018-03-21T04:29:24.506Z,9.73
2018-03-21T04:31:52.907Z,10.35
2018-03-21T04:34:22.994Z,8.80
2018-03-21T04:36:51.641Z,9.45
2018-03-21T04:39:20.671Z,10.45
2018-03-21T04:41:48.851Z,9.52
2018-03-21T04:44:17.247Z,11.80
2018-03-21T04:46:45.880Z,9.02
2018-03-21T04:49:14.997Z,9.20
2018-03-21T04:51:43.640Z,9.45
2018-03-21T04:54:13.173Z,10.25
2018-03-21T04:56:41.700Z,8.50
2018-03-21T04:59:10.003Z,10.60
2018-03-21T05:01:38.621Z,9.95
2018-03-21T05:04:06.904Z,9.05
2018-03-21T05:06:35.406Z,9.45
2018-03-21T05:09:03.720Z,9.57
2018-03-21T05:11:32.112Z,9.30
2018-03-21T05:14:00.280Z,9.68
2018-03-21T05:16:28.498Z,9.00
2018-03-21T05:18:56.811Z,9.32
2018-03-21T05:21:24.939Z,9.68
2018-03-21T05:23:53.072Z,8.20
2018-03-21T05:26:21.272Z,10.02
2018-03-21T05:28:49.378Z,10.52
2018-03-21T05:31:17.566Z,11.40
2018-03-21T05:33:45.768Z,10.50
2018-03-21T05:36:14.266Z,11.10
2018-03-21T05:38:42.778Z,12.50
2018-03-21T05:41:11.056Z,11.40
2018-03-21T05:43:39.342Z,11.12
2018-03-21T05:46:07.749Z,10.52
2018-03-21T05:48:35.860Z,11.00
2018-03-21T05:51:04.359Z,12.93
2018-03-21T05:53:32.534Z,16.05
2018-03-21T05:56:00.950Z,12.68
2018-03-21T05:58:30.053Z,14.60
2018-03-21T06:00:58.342Z,14.35
2018-03-21T06:03:26.821Z,13.25
2018-03-21T06:05:55.244Z,12.70
2018-03-21T06:08:24.894Z,12.88
2018-03-21T06:10:53.736Z,12.43
2018-03-21T06:13:23.076Z,14.15
2018-03-21T06:15:51.810Z,11.20
2018-03-21T06:18:20.602Z,13.25
2018-03-21T06:20:49.652Z,11.12
2018-03-21T06:23:18.207Z,10.63
2018-03-21T06:25:46.838Z,11.18
2018-03-21T06:28:15.222Z,11.68
2018-03-21T06:30:43.525Z,12.23
2018-03-21T06:33:11.802Z,10.25
2018-03-21T06:35:40.175Z,9.70
2018-03-21T06:38:08.617Z,10.10
2018-03-21T06:40:37.845Z,11.32
2018-03-21T06:43:06.040Z,10.68
2018-03-21T06:45:34.237Z,9.98
2018-03-21T06:48:02.460Z,11.07
2018-03-21T06:50:30.626Z,10.27
2018-03-21T06:52:58.830Z,11.07
2018-03-21T06:55:27.005Z,11.05
2018-03-21T06:57:55.094Z,10.63
2018-03-21T07:00:23.297Z,11.23
2018-03-21T07:02:51.482Z,11.90
2018-03-21T07:05:19.675Z,10.98
2018-03-21T07:07:48.086Z,11.20
2018-03-21T07:10:16.389Z,11.12
2018-03-21T07:12:44.577Z,11.95
2018-03-21T07:15:12.861Z,13.35
2018-03-21T07:17:41.086Z,11.93
2018-03-21T07:20:09.249Z,12.90
2018-03-21T07:22:37.454Z,11.85
2018-03-21T07:25:05.653Z,12.05
2018-03-21T07:27:33.691Z,11.80
2018-03-21T07:30:01.825Z,12.55
2018-03-21T07:32:29.932Z,11.88
2018-03-21T07:34:58.124Z,12.85
2018-03-21T07:37:26.180Z,13.10
2018-03-21T07:39:54.195Z,14.40
2018-03-21T07:42:22.390Z,14.93
2018-03-21T07:44:50.415Z,12.60
2018-03-21T07:47:18.790Z,12.63
2018-03-21T07:49:47.172Z,12.07
2018-03-21T07:52:15.585Z,12.98
2018-03-21T07:54:43.881Z,12.23
2018-03-21T07:57:12.312Z,12.68
2018-03-21T07:59:40.567Z,12.75
2018-03-21T08:02:08.667Z,12.77
2018-03-21T08:04:36.765Z,13.40
2018-03-21T08:07:04.956Z,11.48
2018-03-21T08:09:33.059Z,11.50
2018-03-21T08:12:01.247Z,12.30
2018-03-21T08:14:29.444Z,13.55
2018-03-21T08:16:57.836Z,11.70
2018-03-21T08:19:25.840Z,12.90
2018-03-21T08:21:53.901Z,12.20
2018-03-21T08:24:21.998Z,12.82
2018-03-21T08:26:50.405Z,14.15
2018-03-21T08:29:18.602Z,14.02
2018-03-21T08:31:46.899Z,13.60
2018-03-21T08:34:15.104Z,12.93
2018-03-21T08:36:43.394Z,13.80
2018-03-21T08:39:11.592Z,12.77
2018-03-21T08:41:39.786Z,13.18
2018-03-21T08:44:07.979Z,13.60
2018-03-21T08:46:36.167Z,12.20
2018-03-21T08:49:04.359Z,13.13
2018-03-21T08:51:32.547Z,12.98
2018-03-21T08:54:00.639Z,11.90
2018-03-21T08:56:28.700Z,10.98
2018-03-21T08:58:56.654Z,11.82
2018-03-21T09:01:24.822Z,11.63
2018-03-21T09:03:52.735Z,11.23
2018-03-21T09:06:20.833Z,12.90
2018-03-21T09:08:48.804Z,11.43
2018-03-21T09:11:17.114Z,12.07
2018-03-21T09:13:45.321Z,12.82
2018-03-21T09:16:13.439Z,11.95
2018-03-21T09:18:41.671Z,10.93
2018-03-21T09:21:09.724Z,12.82
2018-03-21T09:23:37.724Z,11.80
2018-03-21T09:26:05.851Z,10.90
2018-03-21T09:28:33.798Z,12.33
2018-03-21T09:31:02.018Z,11.27
2018-03-21T09:33:30.778Z,12.73
2018-03-21T09:35:58.718Z,12.00
2018-03-21T09:38:26.754Z,12.10
2018-03-21T09:40:54.701Z,10.80
2018-03-21T09:43:22.901Z,10.90
2018-03-21T09:45:51.200Z,11.47
2018-03-21T09:48:19.497Z,11.05
2018-03-21T09:50:47.586Z,11.88
2018-03-21T09:53:15.775Z,10.50
2018-03-21T09:55:44.076Z,11.50
2018-03-21T09:58:12.266Z,11.15
2018-03-21T10:00:40.708Z,11.93
2018-03-21T10:03:08.965Z,10.80
2018-03-21T10:05:37.151Z,11.18
2018-03-21T10:08:05.417Z,10.43
2018-03-21T10:10:33.647Z,10.05
2018-03-21T10:13:01.855Z,11.18
2018-03-21T10:15:30.145Z,11.32
2018-03-21T10:17:58.327Z,11.63
2018-03-21T10:20:26.425Z,12.48
2018-03-21T10:22:54.715Z,10.90
2018-03-21T10:25:22.906Z,11.82
2018-03-21T10:27:51.107Z,11.50
2018-03-21T10:30:19.512Z,12.07
2018-03-21T10:32:47.512Z,11.00
2018-03-21T10:35:15.588Z,10.50
2018-03-21T10:37:43.785Z,11.40
2018-03-21T10:40:11.875Z,10.35
2018-03-21T10:42:40.091Z,10.65
2018-03-21T10:45:08.406Z,10.65
2018-03-21T10:47:36.660Z,11.95
2018-03-21T10:50:04.859Z,11.02
2018-03-21T10:52:38.913Z,10.65
2018-03-21T10:55:01.146Z,11.05
2018-03-21T10:57:29.345Z,11.63
2018-03-21T10:59:57.439Z,11.15
2018-03-21T11:02:25.737Z,11.25
2018-03-21T11:04:54.140Z,10.60
2018-03-21T11:07:22.522Z,11.15
2018-03-21T11:09:50.718Z,12.00
2018-03-21T11:12:19.027Z,11.20
2018-03-21T11:14:47.253Z,11.18
2018-03-21T11:17:15.504Z,11.63
2018-03-21T11:19:43.592Z,10.38
2018-03-21T11:22:11.789Z,10.43
2018-03-21T11:24:39.996Z,10.63
2018-03-21T11:27:08.287Z,10.88
2018-03-21T11:29:36.477Z,10.60
2018-03-21T11:32:04.578Z,11.32
2018-03-21T11:34:32.673Z,11.73
2018-03-21T11:37:00.753Z,11.07
2018-03-21T11:39:28.857Z,9.70
2018-03-21T11:41:57.041Z,11.10
2018-03-21T11:44:25.234Z,9.77
2018-03-21T11:46:53.531Z,10.52
2018-03-21T11:49:21.840Z,9.05
2018-03-21T11:51:50.121Z,10.93
2018-03-21T11:54:18.419Z,9.50
2018-03-21T11:56:46.622Z,9.35
2018-03-21T11:59:14.698Z,9.23
2018-03-21T12:01:42.811Z,10.07
2018-03-21T12:04:10.899Z,9.63
2018-03-21T12:06:38.989Z,9.32
2018-03-21T12:09:07.190Z,9.80
2018-03-21T12:11:35.475Z,9.38
2018-03-21T12:14:03.678Z,9.65
2018-03-21T12:16:31.767Z,9.05
2018-03-21T12:18:59.861Z,9.80
2018-03-21T12:21:27.925Z,9.85
2018-03-21T12:23:55.898Z,8.77
2018-03-21T12:26:23.887Z,9.52
2018-03-21T12:28:51.883Z,9.13
2018-03-21T12:31:19.895Z,8.43
2018-03-21T12:33:48.041Z,8.77
2018-03-21T12:36:16.007Z,8.50
2018-03-21T12:38:43.991Z,8.40
2018-03-21T12:41:11.989Z,9.15
2018-03-21T12:43:39.992Z,8.45
2018-03-21T12:46:07.987Z,7.82
2018-03-21T12:48:36.070Z,6.68
2018-03-21T12:51:04.057Z,7.30
2018-03-21T12:53:32.037Z,7.50
2018-03-21T12:56:00.068Z,7.37
2018-03-21T12:58:28.265Z,6.90
2018-03-21T13:00:56.561Z,8.27
2018-03-21T13:03:24.664Z,7.03
2018-03-21T13:05:52.804Z,6.85
2018-03-21T13:08:20.952Z,6.65
2018-03-21T13:10:49.079Z,6.40
2018-03-21T13:13:17.127Z,6.37
2018-03-21T13:15:45.067Z,4.85
2018-03-21T13:18:13.036Z,5.70
2018-03-21T13:20:41.127Z,7.18
2018-03-21T13:23:09.227Z,6.43
2018-03-21T13:25:37.326Z,6.60
2018-03-21T13:28:05.414Z,6.82
2018-03-21T13:30:33.514Z,6.05
2018-03-21T13:33:01.649Z,5.22
2018-03-21T13:35:29.631Z,5.80
2018-03-21T13:37:57.801Z,4.85
2018-03-21T13:40:26.100Z,5.43
2018-03-21T13:42:54.221Z,6.22
2018-03-21T13:45:22.180Z,5.78
2018-03-21T13:47:50.160Z,5.18
2018-03-21T13:50:18.243Z,5.20
2018-03-21T13:52:46.221Z,5.10
2018-03-21T13:55:14.280Z,4.85
2018-03-21T13:57:42.227Z,4.53
2018-03-21T14:00:10.300Z,4.90
2018-03-21T14:02:38.261Z,4.68
2018-03-21T14:05:06.381Z,4.57
2018-03-21T14:07:34.301Z,4.45
2018-03-21T14:10:02.309Z,4.80
2018-03-21T14:12:30.229Z,3.83
2018-03-21T14:14:58.304Z,4.30
2018-03-21T14:17:26.361Z,4.85
2018-03-21T14:19:54.430Z,4.40
2018-03-21T14:22:22.445Z,3.85
2018-03-21T14:24:50.411Z,4.80
2018-03-21T14:27:18.438Z,5.15
2018-03-21T14:29:46.457Z,5.00
2018-03-21T14:32:14.357Z,4.37
2018-03-21T14:34:42.318Z,4.20
2018-03-21T14:37:10.298Z,5.62
2018-03-21T14:39:38.279Z,4.65
2018-03-21T14:42:06.258Z,5.30
2018-03-21T14:44:34.218Z,5.43
2018-03-21T14:47:02.228Z,5.05
2018-03-21T14:49:30.262Z,6.35
2018-03-21T14:51:58.232Z,5.70
2018-03-21T14:54:26.263Z,6.35
2018-03-21T14:56:54.241Z,5.72
2018-03-21T14:59:22.196Z,6.75
2018-03-21T15:01:50.138Z,5.35
2018-03-21T15:04:18.134Z,7.12
2018-03-21T15:06:46.135Z,6.55
2018-03-21T15:09:14.141Z,5.57
2018-03-21T15:11:42.242Z,5.72
2018-03-21T15:14:10.299Z,5.82
2018-03-21T15:16:38.241Z,5.95
2018-03-21T15:19:06.342Z,5.32
2018-03-21T15:21:34.530Z,4.93
2018-03-21T15:24:02.686Z,5.90
2018-03-21T15:26:30.707Z,6.35
2018-03-21T15:28:59.056Z,6.15
2018-03-21T15:31:27.478Z,6.35
2018-03-21T15:33:55.864Z,6.40
2018-03-21T15:36:24.160Z,5.80
2018-03-21T15:38:52.366Z,6.65
2018-03-21T15:41:20.548Z,6.20
2018-03-21T15:43:48.742Z,6.00
2018-03-21T15:46:16.829Z,7.03
2018-03-21T15:48:45.031Z,7.03
2018-03-21T15:51:13.304Z,7.62
2018-03-21T15:53:41.515Z,7.68
2018-03-21T15:56:09.618Z,7.30
2018-03-21T15:58:37.832Z,7.07
2018-03-21T16:01:05.954Z,7.47
2018-03-21T16:03:34.295Z,6.05
2018-03-21T16:06:02.492Z,7.50
2018-03-21T16:08:30.797Z,7.18
2018-03-21T16:10:59.092Z,6.30
2018-03-21T16:13:27.375Z,7.57
2018-03-21T16:15:55.407Z,7.95
2018-03-21T16:18:23.437Z,7.40
2018-03-21T16:20:51.406Z,7.45
2018-03-21T16:23:19.363Z,7.55
2018-03-21T16:25:47.569Z,7.45
2018-03-21T16:28:15.630Z,8.07
2018-03-21T16:30:43.717Z,7.85
2018-03-21T16:33:11.712Z,7.60
2018-03-21T16:35:39.805Z,6.65
2018-03-21T16:38:07.845Z,7.57
2018-03-21T16:40:36.044Z,8.02
2018-03-21T16:43:04.182Z,8.38
2018-03-21T16:45:32.517Z,7.60
2018-03-21T16:48:00.467Z,7.00
2018-03-21T16:50:28.528Z,8.32
2018-03-21T16:52:56.508Z,7.05
2018-03-21T16:55:24.538Z,8.40
2018-03-21T16:57:52.519Z,7.35
2018-03-21T17:00:20.641Z,7.87
2018-03-21T17:02:48.715Z,7.50
2018-03-21T17:05:16.778Z,7.75
2018-03-21T17:07:44.739Z,7.97
2018-03-21T17:10:12.874Z,8.20
2018-03-21T17:12:41.083Z,10.50
2018-03-21T17:15:09.289Z,11.80
2018-03-21T17:17:37.500Z,10.50
2018-03-21T17:20:05.598Z,10.00
2018-03-21T17:22:33.726Z,10.05
2018-03-21T17:25:01.818Z,10.50
2018-03-21T17:27:29.899Z,9.65
2018-03-21T17:29:57.955Z,9.30
2018-03-21T17:32:25.949Z,7.78
2018-03-21T17:34:54.218Z,8.15
2018-03-21T17:37:22.297Z,7.57
2018-03-21T17:39:50.400Z,7.10
2018-03-21T17:42:18.599Z,7.55
2018-03-21T17:44:46.619Z,6.90
2018-03-21T17:47:14.553Z,7.28
2018-03-21T17:49:42.560Z,8.43
2018-03-21T17:52:10.500Z,8.38
2018-03-21T17:54:38.567Z,9.82
2018-03-21T17:57:06.559Z,9.10
2018-03-21T17:59:34.563Z,10.10
2018-03-21T18:02:02.500Z,9.45
2018-03-21T18:04:30.680Z,9.38
2018-03-21T18:06:58.794Z,8.90
2018-03-21T18:09:27.001Z,9.40
2018-03-21T18:11:55.281Z,9.88
2018-03-21T18:14:23.495Z,9.48
2018-03-21T18:16:51.680Z,9.40
2018-03-21T18:19:19.808Z,8.77
2018-03-21T18:21:47.850Z,10.65
2018-03-21T18:24:16.057Z,10.20
2018-03-21T18:26:44.255Z,10.80
2018-03-21T18:29:12.442Z,9.13
2018-03-21T18:31:40.737Z,10.10
2018-03-21T18:34:10.058Z,9.10
2018-03-21T18:36:38.260Z,10.13
2018-03-21T18:39:07.060Z,12.07
2018-03-21T18:41:35.348Z,11.20
2018-03-21T18:44:03.460Z,10.13
2018-03-21T18:46:31.636Z,10.05
2018-03-21T18:49:00.234Z,10.40
2018-03-21T18:51:29.148Z,10.38
2018-03-21T18:53:57.567Z,11.15
2018-03-21T18:56:25.687Z,10.60
2018-03-21T18:58:53.707Z,10.68
2018-03-21T19:01:21.951Z,10.77
2018-03-21T19:03:50.110Z,10.15
2018-03-21T19:06:18.327Z,9.75
2018-03-21T19:08:46.428Z,12.68
2018-03-21T19:11:14.707Z,13.15
2018-03-21T19:13:42.909Z,12.05
2018-03-21T19:16:11.110Z,10.98
2018-03-21T19:18:39.176Z,11.05
2018-03-21T19:21:07.440Z,10.43
2018-03-21T19:23:35.493Z,11.70
2018-03-21T19:26:03.579Z,10.25
2018-03-21T19:28:31.779Z,11.38
2018-03-21T19:31:00.058Z,11.30
2018-03-21T19:33:29.185Z,12.95
2018-03-21T19:35:57.378Z,14.77
2018-03-21T19:38:25.459Z,14.65
2018-03-21T19:40:53.658Z,15.50
2018-03-21T19:43:21.969Z,15.18
2018-03-21T19:45:50.078Z,14.68
2018-03-21T19:48:18.238Z,14.95
2018-03-21T19:50:46.363Z,14.38
2018-03-21T19:53:14.443Z,12.75
2018-03-21T19:55:42.438Z,14.32
2018-03-21T19:58:10.622Z,11.85
2018-03-21T20:00:38.801Z,12.70
2018-03-21T20:03:06.902Z,13.77
2018-03-21T20:05:35.160Z,14.50
2018-03-21T20:08:06.361Z,14.52
2018-03-21T20:10:34.503Z,17.60
2018-03-21T20:13:02.641Z,20.35
2018-03-21T20:15:32.631Z,18.83
2018-03-21T20:18:01.083Z,18.95
2018-03-21T20:20:29.183Z,20.75
2018-03-21T20:22:57.363Z,22.55
2018-03-21T20:25:26.782Z,23.73
2018-03-21T20:27:54.881Z,20.73
2018-03-21T20:30:23.058Z,22.35
2018-03-21T20:32:51.193Z,19.12
2018-03-21T20:35:19.661Z,19.40
2018-03-21T20:37:47.760Z,17.83
2018-03-21T20:40:16.469Z,19.30
2018-03-21T20:42:44.559Z,17.10
2018-03-21T20:45:12.842Z,19.40
2018-03-21T20:47:41.359Z,19.80
2018-03-21T20:50:09.463Z,16.02
2018-03-21T20:52:37.708Z,16.23
2018-03-21T20:55:05.819Z,16.25
2018-03-21T20:57:35.323Z,14.95
2018-03-21T21:00:03.656Z,14.65
2018-03-21T21:02:31.825Z,12.82
2018-03-21T21:05:00.757Z,13.32
2018-03-21T21:07:28.960Z,13.43
2018-03-21T21:09:58.239Z,14.57
2018-03-21T21:12:27.156Z,13.48
2018-03-21T21:14:56.674Z,15.65
2018-03-21T21:17:25.557Z,13.13
2018-03-21T21:19:54.118Z,15.60
2018-03-21T21:22:22.425Z,15.88
2018-03-21T21:32:32.880Z,14.80
2018-03-21T21:35:01.313Z,14.73
2018-03-21T21:37:29.799Z,17.37
2018-03-21T21:39:58.521Z,15.93
2018-03-21T21:42:27.190Z,14.07
2018-03-21T21:44:55.838Z,14.90
2018-03-21T21:47:24.442Z,12.07
2018-03-21T21:49:52.911Z,12.50
2018-03-21T21:52:21.184Z,13.27
2018-03-21T21:54:49.450Z,12.98
2018-03-21T21:57:18.269Z,12.55
2018-03-21T21:59:46.803Z,14.18
2018-03-21T22:02:15.274Z,12.35
2018-03-21T22:04:43.494Z,12.52
2018-03-21T22:07:11.793Z,12.30
2018-03-21T22:09:40.053Z,13.70
2018-03-21T22:12:09.315Z,11.55
2018-03-21T22:14:37.954Z,13.23
2018-03-21T22:17:06.814Z,13.45
2018-03-21T22:19:35.088Z,14.05
2018-03-21T22:22:04.659Z,13.55
2018-03-21T22:24:32.960Z,14.63
2018-03-21T22:27:01.444Z,15.45
2018-03-21T22:29:30.164Z,14.52
2018-03-21T22:31:58.464Z,15.63
2018-03-21T22:34:26.654Z,14.50
2018-03-21T22:36:54.840Z,16.20
2018-03-21T22:39:22.765Z,15.52
2018-03-21T22:41:50.925Z,13.80
2018-03-21T22:44:19.219Z,14.57
2018-03-21T22:46:47.441Z,13.95
2018-03-21T22:49:15.813Z,13.93
2018-03-21T22:51:44.100Z,14.75
2018-03-21T22:54:12.406Z,15.07
2018-03-21T22:56:40.807Z,12.90
2018-03-21T22:59:09.195Z,13.45
2018-03-21T23:01:37.392Z,14.38
2018-03-21T23:04:05.588Z,12.65
2018-03-21T23:06:33.782Z,13.25
2018-03-21T23:09:02.083Z,12.95
2018-03-21T23:11:30.267Z,12.60
2018-03-21T23:13:58.477Z,13.57
2018-03-21T23:16:26.570Z,11.45
2018-03-21T23:18:54.761Z,12.68
2018-03-21T23:21:22.800Z,12.75
2018-03-21T23:23:51.044Z,12.40
2018-03-21T23:26:19.242Z,11.68
2018-03-21T23:28:47.537Z,13.88
2018-03-21T23:31:15.822Z,11.80
2018-03-21T23:33:44.123Z,12.48
2018-03-21T23:36:12.323Z,11.65
2018-03-21T23:38:40.726Z,11.60
2018-03-21T23:41:08.807Z,11.90
2018-03-21T23:43:37.002Z,11.52
2018-03-21T23:46:05.100Z,11.45
2018-03-21T23:48:33.305Z,12.55
2018-03-21T23:51:01.637Z,11.32
2018-03-21T23:53:29.880Z,11.35
2018-03-21T23:55:58.085Z,11.77
2018-03-21T23:58:26.279Z,12.07
